Ackley, IA

10:25 PM CDT on July 12, 2014 (GMT -0500)
Iowa Falls Municipal (KIFA) Elev 1138 ft | 42.47 °N, 93.27 °W | Change Station

Current weather conditions updated 10 minutes ago

Clear
Clear
65 °F
Feels Like 65 °F
N
5
Wind Variable Wind from West

Tomorrow is forecast to be nearly the same temperature as today.

Today
High -- | Low -- °F
--% Chance of Precip.
Yesterday
High -- | Low -- °F
Precip. -- in
5:45 AM 8:49 PM
Full, 99% visible
Pressure 30.00 in
Visibility 10.0 miles
Clouds Clear
Dew Point 64 °F
Humidity 94%
Rainfall 0.70 in
Snow Depth Not available.
UV 0 out of 12
Pollen .50 out of 12
Air Quality Not available.
Flu Activity Sporadic
METAR KIFA 130315Z AUTO 27004KT 10SM CLR 19/18 A3000 RMK AO2 T01850176

More Conditions Fewer Conditions

Pressure 30.00 in
Visibility 10.0 miles
Clouds Clear
Dew Point 64 °F
Humidity 94%
Rainfall 0.70 in
Snow Depth Not available.
UV 0 out of 12
Pollen .50 out of 12
Air Quality Not available.
Flu Activity Sporadic
METAR KIFA 130315Z AUTO 27004KT 10SM CLR 19/18 A3000 RMK AO2 T01850176

More Conditions Fewer Conditions

10-Day Weather Forecast

Almanac

Astronomy

Jul. 12, 2014 Rise Set
Actual Time 5:45 AM CDT 8:49 PM CDT
Civil Twilight 5:11 AM CDT 9:23 PM CDT
Nautical Twilight 4:28 AM CDT 10:06 PM CDT
Astronomical Twilight 3:36 AM CDT 10:58 PM CDT
Moon 8:49 PM CDT (7/12) 6:07 AM CDT (7/12)
Length of Visible Light 16h 11m
Length of Day
15h 03m
Tomorrow will be 1m 22s shorter.
Full, 99% of the Moon is Illuminated
Today
Full
Jul 18
Last Quarter
Jul 26
New
Aug 3
First Quarter
Aug 10
Full

Today's Extremes

State Highs State Lows

Community

WunderPhotos

Upload Photos

1,733,071 photos uploaded!

WunderBlogs® & News

Nearby

Snow Depth

Station Depth Elevation
No new snow has been reported.

Earthquake Activity

City Distance Mag. Time & Date
No recent earthquake activity has been reported nearby.
Minimum magnitude displayed is 2.5.

Coastal Water Temperatures

Place Temperature
No Stations Reporting

Nearby Weather Stations

Station Location Temp. Heat Index Dew Point Humidity Wind Precip. Elev Updated Type
Beeds Addition, Hampton, IA 67.6 °F - 68 °F 100% NW  at  2.2 mph 0.00 in / hr 1145 ft 10:25 PM CDT Rapid Fire
MesoWest SHEFFI , Chapin, IA 124 °F 107 °F - - North  at  - 0.00 in / hr 1154 ft 7:30 PM CDT MADIS

Show More Stations Show Fewer Stations